Time;durP1;ratioP1;P1;durP2;ratioP2;P2;SDS_P1;SDS_P2;PMS_P1;PMS_P2;Temp;Humidity;BMP_temperature;BMP_pressure;BME280_temperature;BME280_humidity;BME280_pressure;Samples;Min_cycle;Max_cycle;Signal;HPM_P1;HPM_P2
2021/06/20 00:00:17;;;;;;;12.83;11.70;;;23.80;99.90;;;;;;5094602;28;20265;-75
2021/06/20 00:02:44;;;;;;;13.70;12.50;;;23.80;99.90;;;;;;5094731;28;20454;-75
2021/06/20 00:05:12;;;;;;;13.33;12.17;;;23.80;99.90;;;;;;5094747;28;20404;-76
2021/06/20 00:07:39;;;;;;;13.10;11.90;;;23.80;99.90;;;;;;5094507;28;20400;-75
2021/06/20 00:10:07;;;;;;;12.40;11.40;;;23.70;99.90;;;;;;5094542;28;20410;-75
2021/06/20 00:12:36;;;;;;;13.90;12.67;;;23.70;99.90;;;;;;5094517;28;20904;-75
2021/06/20 00:15:04;;;;;;;13.80;11.83;;;23.70;99.90;;;;;;5094815;28;20419;-75
2021/06/20 00:17:29;;;;;;;12.23;11.03;;;23.60;99.90;;;;;;5094209;28;20407;-75
2021/06/20 00:19:55;;;;;;;13.70;12.40;;;23.60;99.90;;;;;;5094264;28;20463;-75
2021/06/20 00:22:20;;;;;;;13.57;12.17;;;23.60;99.90;;;;;;5094288;28;20530;-75
2021/06/20 00:24:46;;;;;;;12.80;11.70;;;23.60;99.90;;;;;;5094060;28;20191;-75
2021/06/20 00:27:11;;;;;;;12.47;11.30;;;23.50;99.90;;;;;;5093702;28;20640;-75
2021/06/20 00:29:37;;;;;;;13.30;12.20;;;23.50;99.90;;;;;;5093672;28;20167;-75
2021/06/20 00:32:02;;;;;;;16.47;13.77;;;23.50;99.90;;;;;;5093601;28;20192;-75
2021/06/20 00:34:28;;;;;;;12.93;11.63;;;23.40;99.90;;;;;;5093426;28;20180;-75
2021/06/20 00:36:53;;;;;;;14.10;12.80;;;23.40;99.90;;;;;;5093402;28;20254;-76
2021/06/20 00:39:19;;;;;;;13.33;12.03;;;23.40;99.90;;;;;;5093432;28;20203;-75
2021/06/20 00:41:44;;;;;;;14.73;12.60;;;23.30;99.90;;;;;;5093473;28;20273;-75
2021/06/20 00:44:10;;;;;;;13.17;12.07;;;23.30;99.90;;;;;;5093721;28;20658;-75
2021/06/20 00:46:35;;;;;;;13.33;12.23;;;23.20;99.90;;;;;;5094186;28;20170;-76
2021/06/20 00:49:01;;;;;;;14.97;13.57;;;23.20;99.90;;;;;;5094177;28;20337;-74
2021/06/20 00:51:26;;;;;;;13.93;12.53;;;23.20;99.90;;;;;;5093869;28;20277;-75
2021/06/20 00:53:52;;;;;;;13.73;12.53;;;23.20;99.90;;;;;;5093617;28;20525;-75
2021/06/20 00:56:18;;;;;;;14.73;13.53;;;23.10;99.90;;;;;;5093883;28;20250;-75
2021/06/20 00:58:44;;;;;;;14.17;12.87;;;23.10;99.90;;;;;;5093644;28;20178;-75
2021/06/20 01:01:10;;;;;;;14.43;13.13;;;23.10;99.90;;;;;;5093261;28;20525;-75
2021/06/20 01:03:35;;;;;;;14.33;13.00;;;23.00;99.90;;;;;;5093844;28;20649;-76
2021/06/20 01:06:00;;;;;;;15.07;13.50;;;23.00;99.90;;;;;;5099968;28;20168;-75
2021/06/20 01:08:27;;;;;;;15.27;13.90;;;22.90;99.90;;;;;;5115297;28;20206;-75
2021/06/20 01:10:53;;;;;;;14.70;13.40;;;22.90;99.90;;;;;;5093776;28;20174;-75
2021/06/20 01:13:19;;;;;;;17.13;14.43;;;22.90;99.90;;;;;;5094899;28;20404;-75
2021/06/20 01:15:47;;;;;;;16.80;15.00;;;22.80;99.90;;;;;;5093403;28;20175;-75
2021/06/20 01:18:13;;;;;;;15.73;14.47;;;22.80;99.90;;;;;;5093154;28;20167;-76
2021/06/20 01:20:39;;;;;;;18.50;16.70;;;22.80;99.90;;;;;;5092817;28;20471;-77
2021/06/20 01:23:05;;;;;;;15.37;13.93;;;22.70;99.90;;;;;;5092773;28;20401;-76
2021/06/20 01:25:32;;;;;;;15.80;14.30;;;22.70;99.90;;;;;;5092900;28;20399;-76
2021/06/20 01:28:04;;;;;;;16.33;14.90;;;22.60;99.90;;;;;;5092844;28;20551;-76
2021/06/20 01:30:32;;;;;;;17.20;15.80;;;22.60;99.90;;;;;;5092594;28;20418;-75
2021/06/20 01:33:00;;;;;;;16.23;14.47;;;22.60;99.90;;;;;;5092630;28;20764;-76
2021/06/20 01:35:26;;;;;;;17.40;14.30;;;22.60;99.90;;;;;;5074247;28;20419;-74
2021/06/20 01:37:53;;;;;;;17.93;16.23;;;22.60;99.90;;;;;;5092410;28;20422;-74
2021/06/20 01:40:20;;;;;;;16.77;15.10;;;22.50;99.90;;;;;;5092126;28;20552;-75
2021/06/20 01:42:46;;;;;;;16.40;15.10;;;22.50;99.90;;;;;;5092147;28;20529;-75
2021/06/20 01:45:14;;;;;;;17.87;16.37;;;22.50;99.90;;;;;;5092297;28;20394;-75
2021/06/20 01:47:40;;;;;;;17.23;15.63;;;22.50;99.90;;;;;;5092106;28;20760;-75
2021/06/20 01:50:11;;;;;;;17.30;15.70;;;22.40;99.90;;;;;;5092426;28;20508;-75
2021/06/20 01:52:37;;;;;;;17.53;15.60;;;22.40;99.90;;;;;;5091849;28;20204;-75
2021/06/20 01:55:04;;;;;;;20.80;17.03;;;22.40;99.90;;;;;;5092069;28;20401;-75
2021/06/20 01:57:33;;;;;;;18.87;16.93;;;22.40;99.90;;;;;;5091976;28;20830;-75
2021/06/20 02:00:00;;;;;;;18.33;16.60;;;22.30;99.90;;;;;;5092372;28;20459;-75
2021/06/20 02:02:27;;;;;;;16.70;15.30;;;22.30;99.90;;;;;;5091746;28;20483;-75
2021/06/20 02:04:55;;;;;;;18.47;16.50;;;22.30;99.90;;;;;;5092063;28;20398;-75
2021/06/20 02:07:25;;;;;;;17.97;16.20;;;22.30;99.90;;;;;;5091730;28;20412;-75
2021/06/20 02:09:50;;;;;;;18.20;16.50;;;22.20;99.90;;;;;;5092267;28;20414;-76
2021/06/20 02:12:16;;;;;;;17.43;15.83;;;22.30;99.90;;;;;;5091568;28;20430;-76
2021/06/20 02:14:43;;;;;;;18.70;16.80;;;22.20;99.90;;;;;;5073650;28;20252;-76
2021/06/20 02:17:20;;;;;;;18.23;16.70;;;22.30;99.90;;;;;;5091189;28;20422;-76
2021/06/20 02:19:46;;;;;;;22.60;18.63;;;22.20;99.90;;;;;;5091487;28;20456;-76
2021/06/20 02:22:12;;;;;;;16.70;15.13;;;22.20;99.90;;;;;;5091311;28;20435;-76
2021/06/20 02:24:37;;;;;;;17.93;16.43;;;22.20;99.90;;;;;;5091822;28;20631;-76
2021/06/20 02:27:05;;;;;;;17.93;16.27;;;22.20;99.90;;;;;;5091709;28;20414;-76
2021/06/20 02:29:31;;;;;;;19.30;17.60;;;22.20;99.90;;;;;;5091739;28;20259;-76
2021/06/20 02:31:56;;;;;;;18.13;16.50;;;22.20;99.90;;;;;;5091468;28;20512;-76
2021/06/20 02:34:22;;;;;;;17.57;15.80;;;22.20;99.90;;;;;;5091663;28;20185;-76
2021/06/20 02:36:47;;;;;;;18.40;16.80;;;22.20;99.90;;;;;;5091471;28;20176;-74
2021/06/20 02:39:13;;;;;;;19.30;17.27;;;22.20;99.90;;;;;;5091984;28;20218;-76
2021/06/20 02:41:38;;;;;;;17.00;15.50;;;22.20;99.90;;;;;;5092105;28;20272;-73
2021/06/20 02:44:04;;;;;;;16.20;14.77;;;22.10;99.90;;;;;;5091708;28;20177;-77
2021/06/20 02:46:30;;;;;;;16.70;15.30;;;22.10;99.90;;;;;;5073498;28;20584;-74
2021/06/20 02:48:55;;;;;;;19.93;18.10;;;22.10;99.90;;;;;;5091302;28;20547;-76
2021/06/20 02:51:21;;;;;;;19.73;17.97;;;22.20;99.90;;;;;;5090670;28;20222;-76
2021/06/20 02:53:46;;;;;;;20.77;18.20;;;22.10;99.90;;;;;;5091364;28;20649;-76
2021/06/20 02:56:12;;;;;;;20.07;18.27;;;22.10;99.90;;;;;;5091169;28;20240;-76
2021/06/20 02:58:37;;;;;;;19.20;17.60;;;22.10;99.90;;;;;;5091139;28;20592;-76
2021/06/20 03:01:03;;;;;;;18.33;16.90;;;22.10;99.90;;;;;;5090884;28;20248;-76
2021/06/20 03:03:28;;;;;;;17.33;15.73;;;22.10;99.90;;;;;;5091095;28;20176;-76
2021/06/20 03:05:54;;;;;;;20.40;18.57;;;22.20;99.90;;;;;;5091037;28;20167;-76
2021/06/20 03:08:19;;;;;;;18.93;17.27;;;22.30;99.90;;;;;;5090904;28;20172;-76
2021/06/20 03:10:45;;;;;;;18.70;16.97;;;22.20;99.90;;;;;;5090894;28;20197;-76
2021/06/20 03:13:11;;;;;;;18.43;16.93;;;22.30;99.90;;;;;;5090978;28;20245;-75
2021/06/20 03:15:40;;;;;;;18.27;16.53;;;22.30;99.90;;;;;;5073176;28;20172;-76
2021/06/20 03:18:06;;;;;;;20.67;18.80;;;22.30;99.90;;;;;;5091532;28;20487;-76
2021/06/20 03:20:32;;;;;;;19.80;17.70;;;22.30;99.90;;;;;;5091254;28;20597;-77
2021/06/20 03:22:58;;;;;;;18.20;16.53;;;22.40;99.90;;;;;;5090870;28;20167;-76
2021/06/20 03:25:23;;;;;;;18.83;17.17;;;22.40;99.90;;;;;;5090783;28;20415;-75
2021/06/20 03:27:49;;;;;;;19.37;17.77;;;22.50;99.90;;;;;;5091627;28;20165;-76
2021/06/20 03:30:15;;;;;;;18.27;16.77;;;22.50;99.90;;;;;;5095119;28;20545;-76
2021/06/20 03:32:41;;;;;;;19.73;17.63;;;22.60;99.90;;;;;;5094605;28;20174;-76
2021/06/20 03:35:07;;;;;;;19.47;17.60;;;22.60;99.90;;;;;;5094614;28;20413;-76
2021/06/20 03:37:33;;;;;;;18.13;16.43;;;22.60;99.90;;;;;;5094585;28;20249;-74
2021/06/20 03:39:58;;;;;;;17.50;16.17;;;22.70;99.90;;;;;;5094409;28;20564;-76
2021/06/20 03:42:24;;;;;;;19.43;17.50;;;22.70;99.90;;;;;;5094469;28;20492;-75
2021/06/20 03:44:49;;;;;;;19.03;17.13;;;22.70;99.90;;;;;;5076357;28;20168;-76
2021/06/20 03:47:15;;;;;;;19.30;17.60;;;22.80;99.90;;;;;;5095143;28;20167;-76
2021/06/20 03:49:40;;;;;;;18.70;16.90;;;22.80;99.90;;;;;;5094769;28;20585;-76
2021/06/20 03:52:06;;;;;;;18.77;16.50;;;22.90;99.90;;;;;;5094843;28;20774;-76
2021/06/20 03:54:31;;;;;;;18.10;16.40;;;23.00;99.90;;;;;;5095144;28;20171;-76
2021/06/20 03:56:57;;;;;;;19.20;17.73;;;23.00;99.90;;;;;;5094559;28;20215;-76
2021/06/20 03:59:24;;;;;;;17.80;16.40;;;23.10;99.90;;;;;;5094665;28;20271;-76
2021/06/20 04:01:49;;;;;;;18.30;16.70;;;23.10;99.90;;;;;;5094242;28;20237;-76
2021/06/20 04:04:15;;;;;;;17.67;16.10;;;23.20;99.90;;;;;;5076488;28;20454;-76
2021/06/20 04:06:41;;;;;;;19.77;17.87;;;23.30;99.90;;;;;;5094287;28;20229;-74
2021/06/20 04:09:07;;;;;;;18.47;16.70;;;23.30;99.90;;;;;;5094046;28;20411;-75
2021/06/20 04:11:33;;;;;;;16.60;15.30;;;23.50;99.90;;;;;;5093966;28;20427;-75
2021/06/20 04:13:58;;;;;;;18.00;16.17;;;23.50;99.90;;;;;;5093976;28;20538;-75
2021/06/20 04:16:24;;;;;;;18.97;17.07;;;23.80;99.90;;;;;;5094212;28;20172;-75
2021/06/20 04:18:49;;;;;;;16.40;14.77;;;24.20;99.90;;;;;;5093846;28;20189;-75
2021/06/20 04:21:15;;;;;;;15.87;14.33;;;24.60;99.90;;;;;;5094166;28;20195;-76
2021/06/20 04:23:41;;;;;;;15.33;14.13;;;24.90;99.90;;;;;;5094031;28;20511;-76
2021/06/20 04:26:06;;;;;;;15.57;14.23;;;25.40;99.90;;;;;;5093946;28;20168;-76
2021/06/20 04:28:32;;;;;;;16.30;15.00;;;25.50;99.90;;;;;;5093790;28;20172;-76
2021/06/20 04:30:57;;;;;;;16.20;14.70;;;25.80;99.90;;;;;;5093606;28;20189;-76
2021/06/20 04:33:24;;;;;;;15.87;14.50;;;25.80;99.90;;;;;;5093680;28;20177;-76
2021/06/20 04:35:51;;;;;;;14.53;13.33;;;25.90;99.90;;;;;;5093638;28;20167;-76
2021/06/20 04:38:18;;;;;;;16.50;14.77;;;26.10;99.90;;;;;;5093001;28;20420;-77
2021/06/20 04:40:44;;;;;;;16.43;14.77;;;26.20;99.90;;;;;;5093432;28;21248;-76
2021/06/20 04:43:23;;;;;;;15.43;14.03;;;26.50;99.90;;;;;;5093547;28;20410;-76
2021/06/20 04:45:48;;;;;;;15.67;14.37;;;26.50;99.90;;;;;;5093396;28;20413;-76
2021/06/20 04:48:13;;;;;;;14.77;13.70;;;26.60;99.90;;;;;;5093149;28;20402;-76
2021/06/20 04:50:39;;;;;;;15.20;14.00;;;26.80;99.90;;;;;;5093381;28;20684;-76
2021/06/20 04:53:05;;;;;;;16.80;15.50;;;27.10;99.90;;;;;;5093210;28;20170;-76
2021/06/20 04:55:30;;;;;;;16.87;15.40;;;26.70;99.90;;;;;;5093299;28;20643;-76
2021/06/20 04:57:56;;;;;;;16.57;14.87;;;26.50;99.90;;;;;;5074947;28;20709;-75
2021/06/20 05:00:22;;;;;;;15.83;14.53;;;27.00;99.90;;;;;;5092950;28;20267;-77
2021/06/20 05:02:48;;;;;;;15.87;14.37;;;27.40;99.90;;;;;;5092819;28;20164;-76
2021/06/20 05:05:13;;;;;;;16.73;15.43;;;27.30;99.90;;;;;;5093292;28;20471;-76
2021/06/20 05:07:39;;;;;;;16.13;14.93;;;27.20;99.90;;;;;;5092853;28;20164;-76
2021/06/20 05:10:05;;;;;;;18.10;16.70;;;27.50;99.90;;;;;;5092984;28;20172;-77
2021/06/20 05:12:31;;;;;;;16.97;15.60;;;27.60;99.90;;;;;;5093051;28;20216;-76
2021/06/20 05:14:56;;;;;;;17.13;15.73;;;27.80;99.90;;;;;;5092831;28;20900;-77
2021/06/20 05:17:22;;;;;;;15.53;14.27;;;27.80;99.90;;;;;;5092570;28;20165;-76
2021/06/20 05:19:47;;;;;;;15.03;13.80;;;27.90;99.90;;;;;;5092596;28;20201;-76
2021/06/20 05:22:13;;;;;;;16.80;15.47;;;27.80;99.90;;;;;;5092434;28;20188;-76
2021/06/20 05:24:40;;;;;;;16.00;14.70;;;27.70;99.90;;;;;;5092798;28;20243;-76
2021/06/20 05:27:07;;;;;;;15.63;14.33;;;27.60;99.90;;;;;;5092788;28;20261;-76
2021/06/20 05:29:33;;;;;;;19.37;17.87;;;28.20;99.90;;;;;;5092456;28;20426;-76
2021/06/20 05:31:58;;;;;;;16.70;15.30;;;27.80;99.90;;;;;;5092260;28;20442;-76
2021/06/20 05:34:24;;;;;;;17.30;15.80;;;27.30;99.90;;;;;;5092542;28;20172;-76
2021/06/20 05:36:49;;;;;;;17.07;15.70;;;27.60;99.90;;;;;;5092174;28;20580;-76
2021/06/20 05:39:15;;;;;;;17.23;15.83;;;27.50;99.90;;;;;;5092328;28;20193;-76
2021/06/20 05:41:41;;;;;;;16.97;15.47;;;27.90;99.90;;;;;;5092213;28;20265;-76
2021/06/20 05:44:06;;;;;;;16.50;15.20;;;28.50;99.90;;;;;;5092579;28;20533;-76
2021/06/20 05:46:32;;;;;;;17.20;15.70;;;28.40;99.90;;;;;;5092109;28;20536;-76
2021/06/20 05:48:57;;;;;;;18.43;16.83;;;28.50;99.90;;;;;;5093413;28;20165;-76
2021/06/20 05:51:23;;;;;;;16.97;15.77;;;28.80;99.90;;;;;;5092482;28;20219;-76
2021/06/20 05:53:48;;;;;;;18.67;17.03;;;29.30;99.90;;;;;;5093094;28;20193;-76
2021/06/20 05:56:14;;;;;;;18.30;16.80;;;29.20;99.90;;;;;;5092357;28;20194;-76
2021/06/20 05:58:40;;;;;;;15.77;14.63;;;29.00;99.90;;;;;;5092270;28;20605;-76
2021/06/20 06:01:05;;;;;;;17.67;16.27;;;29.30;99.90;;;;;;5091581;28;20208;-76
2021/06/20 06:03:33;;;;;;;19.50;17.90;;;29.20;99.90;;;;;;5092018;28;20153;-75
2021/06/20 06:05:58;;;;;;;18.30;17.00;;;29.30;99.90;;;;;;5091863;28;20574;-76
2021/06/20 06:08:23;;;;;;;19.23;17.57;;;28.80;99.90;;;;;;5091788;28;20400;-75
2021/06/20 06:10:49;;;;;;;19.10;17.30;;;28.90;99.90;;;;;;5091708;28;20189;-75
2021/06/20 06:13:14;;;;;;;18.10;16.83;;;28.60;99.90;;;;;;5091659;28;20205;-75
2021/06/20 06:15:40;;;;;;;17.00;15.27;;;28.80;99.90;;;;;;5091611;28;20191;-76
2021/06/20 06:18:06;;;;;;;16.70;15.50;;;29.20;99.90;;;;;;5091861;28;20161;-75
2021/06/20 06:20:31;;;;;;;18.17;16.70;;;29.00;99.90;;;;;;5073494;28;20669;-74
2021/06/20 06:22:57;;;;;;;16.60;15.07;;;29.40;99.90;;;;;;5091603;28;20918;-75
2021/06/20 06:25:23;;;;;;;18.17;16.73;;;29.40;99.90;;;;;;5091528;28;20204;-75
2021/06/20 06:27:49;;;;;;;17.20;15.90;;;29.70;99.90;;;;;;5091692;28;20191;-75
2021/06/20 06:30:15;;;;;;;16.63;15.53;;;29.80;99.90;;;;;;5091221;28;20448;-75
2021/06/20 06:32:45;;;;;;;16.83;15.43;;;30.00;99.90;;;;;;5091446;28;20173;-75
2021/06/20 06:35:12;;;;;;;14.90;13.90;;;29.90;99.90;;;;;;5091423;28;20482;-75
2021/06/20 06:37:39;;;;;;;16.43;15.13;;;31.20;99.90;;;;;;5091324;28;20406;-75
2021/06/20 06:40:06;;;;;;;16.27;15.00;;;31.20;99.90;;;;;;5091345;28;20475;-75
2021/06/20 06:42:31;;;;;;;17.40;16.00;;;31.70;99.90;;;;;;5090984;28;20423;-76
2021/06/20 06:44:57;;;;;;;18.03;16.60;;;31.00;99.90;;;;;;5091325;28;20497;-76
2021/06/20 06:47:24;;;;;;;17.17;15.97;;;30.50;99.90;;;;;;5091282;28;20211;-75
2021/06/20 06:49:50;;;;;;;16.93;15.73;;;31.00;99.90;;;;;;5091522;28;20543;-75
2021/06/20 06:52:16;;;;;;;17.83;16.53;;;30.20;99.90;;;;;;5091006;28;20451;-75
2021/06/20 06:54:50;;;;;;;17.27;15.83;;;30.00;99.90;;;;;;5091372;28;20499;-75
2021/06/20 06:57:19;;;;;;;17.27;16.00;;;30.80;99.90;;;;;;5103655;28;20196;-75
2021/06/20 06:59:45;;;;;;;16.27;15.20;;;31.00;99.90;;;;;;5106130;28;20781;-75
2021/06/20 07:02:11;;;;;;;18.30;17.10;;;30.90;99.90;;;;;;5117995;28;20471;-75
2021/06/20 07:04:36;;;;;;;19.67;18.17;;;30.50;99.90;;;;;;5122354;28;20158;-75
2021/06/20 07:07:02;;;;;;;18.73;17.47;;;31.00;99.90;;;;;;5122635;28;20161;-76
2021/06/20 07:09:28;;;;;;;18.80;17.40;;;30.50;99.90;;;;;;5088208;28;20261;-76
2021/06/20 07:11:53;;;;;;;17.87;16.63;;;30.80;99.90;;;;;;5098426;28;21070;-76
2021/06/20 07:14:19;;;;;;;19.30;17.97;;;30.90;99.90;;;;;;5099249;28;20180;-76
2021/06/20 07:16:44;;;;;;;17.60;16.40;;;31.00;99.90;;;;;;5100389;28;20165;-75
2021/06/20 07:19:10;;;;;;;19.80;18.07;;;31.10;99.90;;;;;;5100392;28;20176;-75
2021/06/20 07:21:36;;;;;;;19.50;18.10;;;31.20;99.90;;;;;;5098681;28;20288;-75
2021/06/20 07:24:02;;;;;;;18.77;17.37;;;30.50;99.90;;;;;;5098694;28;20165;-75
2021/06/20 07:26:28;;;;;;;19.10;17.77;;;31.00;99.90;;;;;;5098741;28;20170;-75
2021/06/20 07:28:54;;;;;;;21.87;19.50;;;30.70;99.90;;;;;;5096372;28;20472;-76
2021/06/20 07:31:19;;;;;;;20.47;18.87;;;31.40;99.90;;;;;;5097488;28;20201;-75
2021/06/20 07:33:45;;;;;;;19.43;17.83;;;31.10;99.90;;;;;;5097708;28;20243;-75
2021/06/20 07:36:11;;;;;;;19.80;17.90;;;31.10;99.90;;;;;;5097773;28;20166;-76
2021/06/20 07:38:37;;;;;;;19.90;18.50;;;31.50;99.90;;;;;;5097781;28;20158;-76
2021/06/20 07:41:03;;;;;;;21.80;20.07;;;31.40;99.90;;;;;;5097612;28;20656;-76
2021/06/20 07:43:28;;;;;;;20.97;19.40;;;31.60;99.90;;;;;;5097562;28;20726;-76
2021/06/20 07:45:55;;;;;;;20.90;19.30;;;31.60;99.90;;;;;;5097449;28;20413;-75
2021/06/20 07:48:23;;;;;;;19.40;18.07;;;31.90;99.90;;;;;;5097255;28;20161;-75
2021/06/20 07:50:48;;;;;;;21.43;19.50;;;31.80;99.90;;;;;;5097105;28;20442;-76
2021/06/20 07:53:14;;;;;;;21.53;19.67;;;31.30;99.90;;;;;;5097387;28;20904;-76
2021/06/20 07:55:40;;;;;;;20.00;18.60;;;31.10;99.90;;;;;;5097607;28;20177;-75
2021/06/20 07:58:05;;;;;;;21.27;19.77;;;31.30;99.90;;;;;;5097432;28;20179;-76
2021/06/20 08:00:31;;;;;;;21.53;20.03;;;31.20;99.90;;;;;;5097227;28;20549;-76
2021/06/20 08:02:56;;;;;;;21.87;20.10;;;30.90;99.90;;;;;;5097315;28;20176;-75
2021/06/20 08:05:22;;;;;;;21.73;19.80;;;30.80;99.90;;;;;;5097695;28;20802;-75
2021/06/20 08:07:47;;;;;;;21.97;20.17;;;31.10;99.90;;;;;;5097722;28;20165;-76
2021/06/20 08:10:13;;;;;;;22.80;20.80;;;30.90;99.90;;;;;;5097371;28;20204;-76
2021/06/20 08:12:39;;;;;;;24.00;21.67;;;30.90;99.90;;;;;;5097920;28;20710;-74
2021/06/20 08:15:05;;;;;;;24.03;22.00;;;30.80;99.90;;;;;;5093914;28;20174;-75
2021/06/20 08:17:31;;;;;;;22.90;21.20;;;31.00;99.90;;;;;;5094075;28;20170;-74
2021/06/20 08:19:56;;;;;;;22.50;20.70;;;30.80;99.90;;;;;;5093830;28;20814;-75
2021/06/20 08:22:22;;;;;;;21.37;19.63;;;31.10;99.90;;;;;;5093759;28;20189;-76
2021/06/20 08:24:49;;;;;;;20.73;19.33;;;31.20;99.90;;;;;;5093792;28;20169;-76
2021/06/20 08:27:15;;;;;;;20.83;19.13;;;31.30;99.90;;;;;;5093658;28;20188;-75
2021/06/20 08:29:40;;;;;;;21.37;19.73;;;31.30;99.90;;;;;;5093771;28;20891;-75
2021/06/20 08:32:06;;;;;;;21.93;20.10;;;31.40;99.90;;;;;;5093428;28;20213;-75
2021/06/20 08:34:32;;;;;;;22.77;21.17;;;31.30;99.90;;;;;;5093529;28;20642;-75
2021/06/20 08:36:59;;;;;;;22.27;20.67;;;30.90;99.90;;;;;;5093360;28;20189;-75
2021/06/20 08:39:25;;;;;;;21.03;19.63;;;31.10;99.90;;;;;;5093264;28;20531;-75
2021/06/20 08:41:50;;;;;;;21.97;20.27;;;31.10;99.90;;;;;;5093282;28;20427;-75
2021/06/20 08:44:23;;;;;;;20.73;19.23;;;31.40;99.90;;;;;;5075264;28;20865;-75
2021/06/20 08:46:48;;;;;;;21.03;19.53;;;31.60;99.90;;;;;;5093430;28;20515;-75
2021/06/20 08:49:14;;;;;;;21.27;19.43;;;31.80;99.90;;;;;;5075752;28;20449;-76
2021/06/20 08:51:41;;;;;;;23.43;21.70;;;32.20;99.90;;;;;;5093036;28;20266;-76
2021/06/20 08:54:07;;;;;;;21.20;19.40;;;32.00;99.90;;;;;;5093257;28;20158;-77
2021/06/20 08:56:34;;;;;;;20.23;18.83;;;31.60;99.90;;;;;;5093226;28;20418;-76
2021/06/20 08:58:59;;;;;;;19.90;18.23;;;32.10;99.90;;;;;;5093084;28;20435;-76
2021/06/20 09:01:25;;;;;;;18.53;17.23;;;32.10;99.90;;;;;;5092872;28;20506;-76
2021/06/20 09:03:50;;;;;;;17.97;16.67;;;32.10;99.90;;;;;;5092977;28;20173;-76
2021/06/20 09:06:21;;;;;;;18.87;17.20;;;32.30;99.90;;;;;;5092880;28;20211;-75
2021/06/20 09:08:52;;;;;;;17.93;16.73;;;32.30;99.90;;;;;;5092837;28;20169;-76
2021/06/20 09:11:33;;;;;;;17.10;15.80;;;32.60;99.90;;;;;;5092741;28;20423;-76
2021/06/20 09:14:13;;;;;;;14.93;13.93;;;32.90;99.90;;;;;;5092969;28;20407;-75
2021/06/20 09:16:47;;;;;;;14.47;13.00;;;32.90;99.00;;;;;;5093013;28;20776;-75
2021/06/20 09:19:13;;;;;;;13.23;12.33;;;33.00;98.80;;;;;;5093086;28;20758;-73
2021/06/20 09:21:38;;;;;;;15.03;13.93;;;33.00;98.70;;;;;;5092819;28;20820;-75
2021/06/20 09:24:04;;;;;;;13.93;12.83;;;32.80;98.10;;;;;;5092762;28;20498;-75
2021/06/20 09:26:33;;;;;;;10.70;9.90;;;33.00;97.50;;;;;;5091347;28;20256;-75
2021/06/20 09:28:58;;;;;;;12.30;11.40;;;33.20;97.10;;;;;;5092507;28;20248;-77
2021/06/20 09:31:24;;;;;;;12.13;10.70;;;33.60;96.70;;;;;;5092546;28;20558;-76
2021/06/20 09:33:59;;;;;;;11.57;10.50;;;33.60;95.90;;;;;;5093096;28;20157;-77
2021/06/20 09:36:28;;;;;;;10.97;10.07;;;33.70;95.10;;;;;;5092788;28;20592;-76
2021/06/20 09:38:54;;;;;;;13.60;10.40;;;33.60;94.90;;;;;;5097243;28;20464;-77
2021/06/20 09:41:19;;;;;;;10.90;10.10;;;33.80;94.20;;;;;;5095488;28;20455;-76
2021/06/20 09:43:53;;;;;;;9.50;8.70;;;33.70;94.10;;;;;;5094717;28;20579;-77
2021/06/20 09:46:19;;;;;;;9.77;9.10;;;33.80;94.00;;;;;;5094762;28;20187;-76
2021/06/20 09:48:45;;;;;;;10.80;9.80;;;33.30;94.60;;;;;;5094987;28;20800;-77
2021/06/20 09:51:25;;;;;;;10.13;8.83;;;33.40;94.50;;;;;;5094616;28;20240;-76
2021/06/20 09:53:51;;;;;;;10.57;9.67;;;33.70;94.30;;;;;;5094137;28;20402;-76
2021/06/20 09:56:22;;;;;;;10.27;9.27;;;34.00;94.40;;;;;;5093259;28;20487;-76
2021/06/20 09:59:04;;;;;;;9.67;8.77;;;34.30;93.90;;;;;;5092748;28;20166;-75
2021/06/20 10:01:32;;;;;;;9.87;9.03;;;34.40;93.80;;;;;;5092203;28;20435;-75
2021/06/20 10:03:58;;;;;;;10.73;9.90;;;34.60;93.30;;;;;;5093225;28;20444;-76
2021/06/20 10:06:24;;;;;;;9.70;8.90;;;34.40;92.90;;;;;;5092574;28;20486;-76
2021/06/20 10:08:49;;;;;;;8.90;8.30;;;34.60;93.40;;;;;;5095157;28;20425;-76
2021/06/20 10:11:16;;;;;;;9.93;8.93;;;34.40;92.90;;;;;;5094097;28;20439;-76
2021/06/20 10:13:42;;;;;;;10.30;9.40;;;34.70;92.40;;;;;;5094582;28;20238;-76
2021/06/20 10:16:11;;;;;;;9.77;8.80;;;34.00;92.80;;;;;;5092319;28;20392;-77
2021/06/20 10:18:43;;;;;;;10.83;9.73;;;33.90;93.40;;;;;;5091729;28;20538;-76
2021/06/20 10:21:09;;;;;;;12.73;10.77;;;33.90;93.20;;;;;;5091743;28;20451;-76
2021/06/20 10:23:34;;;;;;;12.10;10.90;;;34.20;93.20;;;;;;5091809;28;20418;-76
2021/06/20 10:26:08;;;;;;;10.43;9.60;;;34.00;93.00;;;;;;5073662;28;20180;-76
2021/06/20 10:28:34;;;;;;;9.77;9.00;;;33.80;93.20;;;;;;5091548;28;20165;-76
2021/06/20 10:31:09;;;;;;;13.70;10.63;;;34.30;94.40;;;;;;5091637;28;20513;-77
2021/06/20 10:33:37;;;;;;;12.40;10.10;;;34.00;94.20;;;;;;5091711;28;20183;-76
2021/06/20 10:36:10;;;;;;;12.27;10.07;;;34.00;93.50;;;;;;5091153;28;20904;-76
2021/06/20 10:38:44;;;;;;;11.93;10.57;;;34.20;93.10;;;;;;5091498;28;20395;-75
2021/06/20 10:41:23;;;;;;;12.03;10.50;;;34.00;93.40;;;;;;5091303;28;20908;-77
2021/06/20 10:44:00;;;;;;;11.50;10.40;;;34.20;93.60;;;;;;5091529;28;20422;-76
2021/06/20 10:46:27;;;;;;;13.03;11.77;;;34.20;93.30;;;;;;5073266;28;20410;-76
2021/06/20 10:48:52;;;;;;;11.57;10.63;;;34.20;93.10;;;;;;5091818;28;20403;-76
2021/06/20 10:51:20;;;;;;;14.93;10.30;;;34.10;93.80;;;;;;5091749;28;20435;-76
2021/06/20 10:53:46;;;;;;;13.00;10.37;;;34.20;93.80;;;;;;5091948;28;20246;-76
2021/06/20 10:56:21;;;;;;;10.93;9.80;;;34.00;93.30;;;;;;5091893;28;20438;-77
2021/06/20 10:58:51;;;;;;;12.63;9.67;;;34.20;93.20;;;;;;5091741;28;20169;-76
2021/06/20 11:01:21;;;;;;;16.30;10.43;;;34.00;93.50;;;;;;5091715;28;21101;-76
2021/06/20 11:03:59;;;;;;;14.00;10.63;;;34.20;93.50;;;;;;5091863;28;20399;-76
2021/06/20 11:06:26;;;;;;;12.20;11.07;;;33.80;93.90;;;;;;5091816;28;20396;-75
2021/06/20 11:09:07;;;;;;;11.50;10.07;;;33.90;93.50;;;;;;5091924;28;20437;-75
2021/06/20 11:11:52;;;;;;;12.30;9.47;;;33.90;94.60;;;;;;5091427;28;20407;-76
2021/06/20 11:14:19;;;;;;;12.60;11.33;;;33.80;94.40;;;;;;5091507;28;20907;-76
2021/06/20 11:16:47;;;;;;;13.17;11.83;;;34.00;93.90;;;;;;5073293;28;20750;-76
2021/06/20 11:19:27;;;;;;;13.77;9.50;;;34.30;93.10;;;;;;5091407;28;20409;-76
2021/06/20 11:21:56;;;;;;;14.00;10.53;;;34.20;92.90;;;;;;5091264;28;20830;-77
2021/06/20 11:24:24;;;;;;;13.50;9.53;;;34.00;93.80;;;;;;5091586;28;20403;-76
2021/06/20 11:27:13;;;;;;;15.13;9.37;;;34.10;92.90;;;;;;5091351;28;20916;-76
2021/06/20 11:29:54;;;;;;;18.33;8.17;;;34.40;92.50;;;;;;5091500;28;20414;-76
2021/06/20 11:32:25;;;;;;;15.87;9.50;;;34.40;92.00;;;;;;5091102;28;20427;-77
2021/06/20 11:34:55;;;;;;;13.20;9.20;;;34.40;91.20;;;;;;5091466;28;20423;-76
2021/06/20 11:37:23;;;;;;;18.00;9.17;;;34.20;90.80;;;;;;5091327;28;20458;-77
2021/06/20 11:39:50;;;;;;;14.10;9.67;;;34.00;91.20;;;;;;5091321;28;20454;-76
2021/06/20 11:42:23;;;;;;;11.70;8.50;;;34.00;91.20;;;;;;5091375;28;20784;-76
2021/06/20 11:45:19;;;;;;;14.90;9.00;;;34.00;90.50;;;;;;5091157;28;20403;-76
2021/06/20 11:47:50;;;;;;;14.27;9.20;;;34.20;90.70;;;;;;5089354;28;20412;-76
2021/06/20 11:50:27;;;;;;;11.73;8.70;;;34.10;90.70;;;;;;5076068;28;20411;-76
2021/06/20 11:52:58;;;;;;;14.67;8.83;;;34.30;90.40;;;;;;5095159;28;20926;-76
2021/06/20 11:55:26;;;;;;;14.57;8.00;;;34.30;89.00;;;;;;5094995;28;20403;-76
2021/06/20 11:57:53;;;;;;;12.00;7.37;;;34.30;88.10;;;;;;5094808;28;20406;-76
2021/06/20 12:00:22;;;;;;;14.10;7.07;;;34.30;86.90;;;;;;5094938;28;20455;-76
2021/06/20 12:03:06;;;;;;;16.03;7.77;;;34.20;86.30;;;;;;5095009;28;20498;-77
2021/06/20 12:05:33;;;;;;;19.57;13.50;;;34.20;86.90;;;;;;5094840;28;20399;-76
2021/06/20 12:08:04;;;;;;;13.40;10.40;;;34.40;88.00;;;;;;5094910;28;20404;-77
2021/06/20 12:10:32;;;;;;;9.93;9.00;;;34.20;88.20;;;;;;5094808;28;20414;-76
2021/06/20 12:13:03;;;;;;;15.00;7.70;;;34.10;88.90;;;;;;5094853;28;20465;-76
2021/06/20 12:15:30;;;;;;;10.23;7.80;;;34.10;90.20;;;;;;5094848;28;20399;-76
2021/06/20 12:17:56;;;;;;;12.10;7.57;;;34.00;89.00;;;;;;5094838;28;20403;-77
2021/06/20 12:20:38;;;;;;;9.87;7.20;;;33.70;90.00;;;;;;5094680;28;20508;-76
2021/06/20 12:23:05;;;;;;;10.40;8.00;;;34.00;88.90;;;;;;5094946;28;20706;-76
2021/06/20 12:25:49;;;;;;;10.83;8.60;;;34.10;88.70;;;;;;5094967;28;20431;-76
2021/06/20 12:28:17;;;;;;;12.83;8.43;;;34.00;88.20;;;;;;5094586;28;20429;-75